Arroio do Meio, Brazil
Current Conditions -  °F | °C
As of 6:00 AM on Thursday 29 Jan 2015 (Local Time) from SBCO Reporting Station
Broken Clouds Broken Clouds  
Wind Chill: 75°   Ceiling: 2000
Heat Index: 75°   Visibility: 6mi
Dew Point: 73°   Wind: 2mph
Humidity: 94%   Direction: 340°NNW
Pressure: 29.71"   Gusts: NA
Location:  29.4°S, 51.94°W
Report Text: SBCO 290800Z 34002KT 9999 SCT004 BKN020 BKN030 24/23 Q1006
Loading
Personal Weather Stations






























Interactive Weather Map New forecast layout! Learn more

10-Day Weather Forecast

Advertisements
Track Severe Weather on mobile